Latest Coastal Weather Observations for Wyndham Airport

IDW60701

Issued at 11:35 pm WST Thursday 31 July 2014 (issued every 10 minutes, with the page automatically refreshed every 10 minutes)

About coastal observations | Map of coastal stations | Coastal observations for WA | Marine services | Other Formats
Station Details ID: 001006 Name: WYNDHAM AERO Lat: -15.51 Lon: 128.15 Height: 3.8 m
Data from the previous 72 hours. | See also: Recent months for locations in Western Australia
Date/Time
WST
Temp

°C
Wind Pressure Rain
since 9am
mm
Weather Cloud Vis
km
Sea
Height
m
Swell
Dir
 
Speed
knots
Gust
knots
hPa Trend Height
m
Period
s
Dir
31/11:30pm 21.1 E 5 6 1013.6 - 0.0 - - - - - - -
31/11:00pm 19.4 CALM 0 0 1013.7 - 0.0 - - - - - - -
31/10:30pm 19.1 CALM 0 0 1013.6 - 0.0 - - - - - - -
31/10:00pm 21.3 SSW 2 4 1013.7 - 0.0 - - - - - - -
31/09:30pm 20.7 SSW 1 5 1013.9 - 0.0 - - - - - - -
31/09:00pm 21.2 CALM 0 0 1013.9 - 0.0 - - - - - - -
31/08:30pm 21.8 NW 3 4 1013.8 - 0.0 - - - - - - -
31/08:00pm 24.0 W 3 5 1013.6 - 0.0 - - - - - - -
31/07:30pm 24.8 ENE 3 6 1013.4 - 0.0 - - - - - - -
31/07:00pm 25.5 E 6 7 1013.1 - 0.0 - - - - - - -
31/06:30pm 27.1 ESE 4 8 1012.7 - 0.0 - - - - - - -
31/06:00pm 27.6 ENE 5 7 1012.1 - 0.0 - - - - - - -
31/05:30pm 28.8 ENE 5 6 1012.0 - 0.0 - - - - - - -
31/05:00pm 31.8 E 7 9 1011.9 - 0.0 - - - - - - -
31/04:30pm 33.2 E 7 9 1011.7 - 0.0 - - - - - - -
31/04:00pm 33.8 ESE 8 11 1011.6 - 0.0 - - - - - - -
31/03:30pm 34.2 E 6 11 1011.6 - 0.0 - - - - - - -
31/03:00pm 34.3 E 7 12 1011.7 - 0.0 - - - - - - -
31/02:30pm 34.4 ENE 7 11 1011.8 - 0.0 - - - - - - -
31/02:00pm 34.6 ENE 10 14 1012.1 - 0.0 - - - - - - -
31/01:30pm 34.6 ESE 8 13 1012.6 - 0.0 - - - - - - -
31/01:00pm 34.2 E 9 13 1013.1 - 0.0 - - - - - - -
31/12:30pm 34.1 ESE 10 16 1013.9 - 0.0 - - - - - - -
31/12:00pm 33.5 ESE 10 14 1014.5 - 0.0 - - - - - - -
31/11:30am 32.6 E 12 16 1015.0 - 0.0 - - - - - - -
31/11:00am 33.0 E 12 17 1015.4 - 0.0 - - - - - - -
31/10:30am 32.5 ENE 13 17 1015.9 - 0.0 - - - - - - -
31/10:00am 31.5 E 14 19 1016.3 - 0.0 - - - - - - -
31/09:30am 31.2 E 12 16 1016.7 - 0.0 - - - - - - -
31/09:00am 30.5 E 12 16 1016.9 - 0.0 - - - - - - -
31/08:30am 30.1 ESE 8 12 1017.0 - 0.0 - - - - - - -
31/08:00am 27.2 NNE 1 5 1016.8 - 0.0 - - - - - - -
31/07:30am 23.9 SSW 4 5 1016.5 - 0.0 - - - - - - -
31/07:00am 21.5 WSW 2 3 1016.2 - 0.0 - - - - - - -
31/06:30am 18.5 NW 3 4 1015.9 - 0.0 - - - - - - -
31/06:00am 16.2 CALM 0 0 1015.6 - 0.0 - - - - - - -
31/05:30am 16.1 CALM 0 0 1015.1 - 0.0 - - - - - - -
31/05:00am 17.3 N 3 4 1014.7 - 0.0 - - - - - - -
31/04:30am 17.7 NW 1 4 1014.6 - 0.0 - - - - - - -
31/04:00am 16.6 CALM 0 0 1014.5 - 0.0 - - - - - - -
31/03:30am 17.0 CALM 0 0 1014.4 - 0.0 - - - - - - -
31/03:00am 17.2 CALM 0 0 1014.4 - 0.0 - - - - - - -
31/02:30am 18.7 NNW 3 5 1014.4 - 0.0 - - - - - - -
31/02:00am 19.4 NNW 2 5 1014.6 - 0.0 - - - - - - -
31/01:30am 18.6 WSW 2 4 1014.8 - 0.0 - - - - - - -
31/01:00am 19.8 WNW 2 4 1014.8 - 0.0 - - - - - - -
31/12:30am 19.6 CALM 0 0 1014.9 - 0.0 - - - - - - -
31/12:00am 19.8 WSW 0 0 1015.0 - 0.0 - - - - - - -
 
Date/Time
WST
Temp

°C
Wind Pressure Rain
since 9am
mm
Weather Cloud Vis
km
Sea
Height
m
Swell
Dir
 
Speed
knots
Gust
knots
hPa Trend Height
m
Period
s
Dir
30/11:30pm 19.3 CALM 0 0 1015.0 - 0.0 - - - - - - -
30/11:00pm 20.0 CALM 0 0 1015.1 - 0.0 - - - - - - -
30/10:30pm 19.9 E 3 4 1015.0 - 0.0 - - - - - - -
30/10:00pm 20.8 CALM 0 0 1015.2 - 0.0 - - - - - - -
30/09:30pm 21.9 CALM 0 0 1015.2 - 0.0 - - - - - - -
30/09:00pm 22.8 CALM 0 0 1015.1 - 0.0 - - - - - - -
30/08:30pm 24.8 ESE 4 7 1015.2 - 0.0 - - - - - - -
30/08:00pm 24.4 SSW 6 8 1015.1 - 0.0 - - - - - - -
30/07:30pm 25.8 CALM 0 3 1014.9 - 0.0 - - - - - - -
30/07:00pm 26.7 N 4 6 1014.6 - 0.0 - - - - - - -
30/06:30pm 27.5 N 7 8 1014.2 - 0.0 - - - - - - -
30/06:00pm 28.4 N 7 10 1013.8 - 0.0 - - - - - - -
30/05:30pm 29.0 N 8 11 1013.5 - 0.0 - - - - - - -
30/05:00pm 30.0 N 10 13 1013.2 - 0.0 - - - - - - -
30/04:30pm 31.0 N 9 12 1012.9 - 0.0 - - - - - - -
30/04:00pm 33.4 E 9 12 1012.7 - 0.0 - - - - - - -
30/03:30pm 33.5 ENE 8 10 1012.4 - 0.0 - - - - - - -
30/03:00pm 34.2 E 9 15 1012.3 - 0.0 - - - - - - -
30/02:30pm 34.0 E 9 14 1012.4 - 0.0 - - - - - - -
30/02:00pm 34.0 E 5 9 1012.5 - 0.0 - - - - - - -
30/01:30pm 34.1 E 13 19 1012.9 - 0.0 - - - - - - -
30/01:00pm 33.7 ESE 10 16 1013.2 - 0.0 - - - - - - -
30/12:30pm 34.0 E 9 12 1013.8 - 0.0 - - - - - - -
30/12:00pm 33.2 E 11 16 1014.5 - 0.0 - - - - - - -
30/11:30am 32.7 E 13 17 1015.2 - 0.0 - - - - - - -
30/11:00am 32.6 E 13 18 1015.6 - 0.0 - - - - - - -
30/10:30am 32.4 E 15 21 1016.1 - 0.0 - - - - - - -
30/10:00am 32.2 E 17 22 1016.5 - 0.0 - - - - - - -
30/09:30am 32.2 E 16 21 1016.9 - 0.0 - - - - - - -
30/09:00am 31.6 E 15 20 1017.1 - 0.0 - - - - - - -
30/08:30am 31.2 ESE 15 19 1017.2 - 0.0 - - - - - - -
30/08:00am 29.3 ESE 11 14 1017.2 - 0.0 - - - - - - -
30/07:30am 27.9 ESE 8 10 1017.2 - 0.0 - - - - - - -
30/07:00am 25.5 E 5 7 1017.0 - 0.0 - - - - - - -
30/06:55am 25.0 E 6 7 1017.0 - 0.0 - - - - - - -
30/06:30am 20.0 E 6 6 1016.6 - 0.0 - - - - - - -
30/06:00am 18.4 E 7 8 1016.4 - 0.0 - - - - - - -
30/05:30am 20.3 E 6 7 1016.0 - 0.0 - - - - - - -
30/05:00am 21.5 E 8 8 1015.7 - 0.0 - - - - - - -
30/04:30am 18.3 E 6 7 1015.6 - 0.0 - - - - - - -
30/04:00am 18.4 E 7 7 1015.6 - 0.0 - - - - - - -
30/03:30am 19.6 E 6 7 1015.3 - 0.0 - - - - - - -
30/03:00am 20.3 E 7 8 1015.1 - 0.0 - - - - - - -
30/02:30am 21.8 E 7 8 1015.0 - 0.0 - - - - - - -
30/02:00am 21.7 E 7 7 1015.1 - 0.0 - - - - - - -
30/01:30am 22.4 E 6 7 1015.1 - 0.0 - - - - - - -
30/01:00am 19.4 ENE 5 6 1015.2 - 0.0 - - - - - - -
30/12:30am 19.0 E 5 6 1015.3 - 0.0 - - - - - - -
30/12:00am 19.0 E 4 6 1015.4 - 0.0 - - - - - - -
 
Date/Time
WST
Temp

°C
Wind Pressure Rain
since 9am
mm
Weather Cloud Vis
km
Sea
Height
m
Swell
Dir
 
Speed
knots
Gust
knots
hPa Trend Height
m
Period
s
Dir
29/11:30pm 19.6 CALM 0 0 1015.3 - 0.0 - - - - - - -
29/11:00pm 20.4 CALM 0 0 1015.4 - 0.0 - - - - - - -
29/10:30pm 21.3 W 3 4 1015.5 - 0.0 - - - - - - -
29/10:00pm 22.4 E 7 8 1015.5 - 0.0 - - - - - - -
29/09:30pm 21.1 ESE 7 7 1015.6 - 0.0 - - - - - - -
29/09:00pm 22.5 SSW 1 5 1015.6 - 0.0 - - - - - - -
29/08:30pm 23.2 SW 1 5 1015.6 - 0.0 - - - - - - -
29/08:00pm 23.9 CALM 0 0 1015.5 - 0.0 - - - - - - -
29/07:30pm 24.1 SW 1 5 1015.3 - 0.0 - - - - - - -
29/07:00pm 24.7 CALM 0 0 1014.9 - 0.0 - - - - - - -
29/06:30pm 26.2 CALM 0 0 1014.4 - 0.0 - - - - - - -
29/06:00pm 27.6 ENE 3 4 1014.2 - 0.0 - - - - - - -
29/05:30pm 28.7 NE 5 6 1013.8 - 0.0 - - - - - - -
29/05:00pm 31.8 E 10 13 1013.5 - 0.0 - - - - - - -
29/04:30pm 32.9 E 10 14 1013.3 - 0.0 - - - - - - -
29/04:00pm 33.4 ENE 8 11 1013.1 - 0.0 - - - - - - -
29/03:30pm 33.9 ESE 9 10 1013.0 - 0.0 - - - - - - -
29/03:00pm 33.9 ENE 10 13 1012.8 - 0.0 - - - - - - -
29/02:30pm 34.2 NNE 4 8 1013.1 - 0.0 - - - - - - -
29/02:00pm 34.4 E 11 15 1013.2 - 0.0 - - - - - - -
29/01:30pm 34.0 ESE 12 17 1013.5 - 0.0 - - - - - - -
29/01:00pm 34.2 ENE 11 16 1013.7 - 0.0 - - - - - - -
29/12:30pm 34.3 NE 10 20 1014.2 - 0.0 - - - - - - -
29/12:00pm 33.5 E 9 16 1015.0 - 0.0 - - - - - - -
29/11:30am 33.3 NNE 7 12 1015.7 - 0.0 - - - - - - -
29/11:00am 32.1 E 12 20 1016.2 - 0.0 - - - - - - -
29/10:30am 32.2 ENE 11 17 1016.7 - 0.0 - - - - - - -
29/10:00am 31.9 E 11 15 1017.1 - 0.0 - - - - - - -
29/09:30am 31.3 E 15 19 1017.3 - 0.0 - - - - - - -
29/09:00am 30.9 ESE 15 20 1017.5 - 0.2 - - - - - - -
29/08:30am 30.7 ESE 14 17 1017.6 - 0.2 - - - - - - -
29/08:00am 29.4 E 15 19 1017.4 - 0.2 - - - - - - -
29/07:30am 28.3 ESE 13 18 1017.3 - 0.2 - - - - - - -
29/07:00am 25.8 E 8 10 1017.1 - 0.2 - - - - - - -
29/06:30am 24.5 E 8 9 1016.9 - 0.2 - - - - - - -
29/06:00am 22.2 E 8 9 1016.7 - 0.2 - - - - - - -
29/05:30am 22.8 E 7 9 1016.3 - 0.2 - - - - - - -
29/05:00am 20.8 E 7 8 1015.9 - 0.2 - - - - - - -
29/04:30am 21.0 E 7 7 1015.6 - 0.2 - - - - - - -
29/04:00am 18.5 E 4 5 1015.5 - 0.2 - - - - - - -
29/03:30am 18.1 CALM 0 0 1015.3 - 0.2 - - - - - - -
29/03:00am 17.3 CALM 0 0 1015.1 - 0.2 - - - - - - -
29/02:30am 18.2 CALM 0 0 1014.9 - 0.2 - - - - - - -
29/02:00am 18.7 CALM 0 0 1014.9 - 0.2 - - - - - - -
29/01:30am 19.2 CALM 0 0 1014.9 - 0.2 - - - - - - -
29/01:00am 19.9 ESE 4 6 1015.0 - 0.2 - - - - - - -
29/12:30am 20.2 E 4 5 1015.1 - 0.2 - - - - - - -
29/12:00am 20.7 CALM 0 0 1015.4 - 0.2 - - - - - - -

Other Formats:

Comma delimited format used in spreadsheet applications
http://www.bom.gov.au/fwo/IDW60701/IDW60701.95214.axf

JavaScript Object Notation format (JSON) in row-major order
http://www.bom.gov.au/fwo/IDW60701/IDW60701.95214.json